Time;durP1;ratioP1;P1;durP2;ratioP2;P2;SDS_P1;SDS_P2;PMS_P1;PMS_P2;Temp;Humidity;BMP_temperature;BMP_pressure;BME280_temperature;BME280_humidity;BME280_pressure;Samples;Min_cycle;Max_cycle;Signal;HPM_P1;HPM_P2
2023/10/23 00:02:22;;;;;;;7.43;3.83;;;;;;;4.03;80.82;100350.28;5024448;28;20063;-63
2023/10/23 00:04:53;;;;;;;6.35;3.67;;;;;;;4.06;80.44;100355.50;5048607;28;20045;-63
2023/10/23 00:07:23;;;;;;;7.63;2.65;;;;;;;4.09;80.31;100352.94;5043460;28;20044;-63
2023/10/23 00:09:55;;;;;;;6.30;2.13;;;;;;;4.15;80.93;100362.50;5074861;28;20045;-64
2023/10/23 00:12:26;;;;;;;6.38;2.00;;;;;;;4.16;80.88;100365.09;5058791;28;20047;-63
2023/10/23 00:14:56;;;;;;;4.45;2.13;;;;;;;4.12;80.72;100373.69;5043168;28;20041;-63
2023/10/23 00:20:42;;;;;;;3.83;1.73;;;;;;;3.97;79.27;100386.41;5042890;28;20486;-63
2023/10/23 00:23:13;;;;;;;4.47;1.90;;;;;;;3.91;79.96;100394.09;5058970;28;20340;-62
2023/10/23 00:25:45;;;;;;;6.80;2.10;;;;;;;3.80;78.92;100405.16;5052843;28;20050;-62
2023/10/23 00:28:15;;;;;;;3.78;2.10;;;;;;;3.75;79.51;100400.78;5053806;28;20181;-63
2023/10/23 00:30:46;;;;;;;2.85;1.83;;;;;;;3.68;79.79;100397.25;5062690;28;20131;-62
2023/10/23 00:33:16;;;;;;;4.32;2.05;;;;;;;3.66;80.60;100375.69;5041816;28;20572;-63
2023/10/23 00:35:47;;;;;;;4.47;1.60;;;;;;;3.88;81.02;100403.53;5054112;28;20075;-62
2023/10/23 00:38:17;;;;;;;7.43;2.00;;;;;;;3.94;81.79;100401.88;5042806;28;20059;-62
2023/10/23 00:40:49;;;;;;;4.38;1.90;;;;;;;3.91;78.25;100391.50;5062573;28;20066;-63
2023/10/23 00:43:22;;;;;;;3.83;1.80;;;;;;;3.93;79.85;100376.91;5042017;28;20052;-62
2023/10/23 00:45:55;;;;;;;5.15;2.63;;;;;;;4.05;81.18;100371.88;5052034;28;20116;-63
2023/10/23 00:48:27;;;;;;;9.43;4.20;;;;;;;4.20;81.77;100374.63;5040885;28;20402;-62
2023/10/23 00:50:59;;;;;;;8.75;4.10;;;;;;;4.33;81.78;100376.50;5061471;28;20048;-62
2023/10/23 00:53:33;;;;;;;8.13;3.97;;;;;;;4.47;81.62;100375.78;5040323;28;20084;-62
2023/10/23 00:56:07;;;;;;;6.97;3.33;;;;;;;3.96;81.92;100265.75;5052226;28;20040;-62
2023/10/23 00:58:40;;;;;;;11.68;2.80;;;;;;;4.69;82.03;100375.16;5041775;28;20044;-62
2023/10/23 01:01:12;;;;;;;4.85;2.45;;;;;;;4.91;82.20;100380.50;5062716;28;20048;-61
2023/10/23 01:03:44;;;;;;;6.63;2.10;;;;;;;5.07;81.67;100372.00;5041344;28;20202;-62
2023/10/23 01:06:14;;;;;;;4.80;2.08;;;;;;;5.23;82.31;100369.53;5052100;28;20041;-62
2023/10/23 01:08:45;;;;;;;4.30;1.50;;;;;;;5.37;81.51;100370.50;5073161;28;20044;-62
2023/10/23 01:11:17;;;;;;;5.90;1.90;;;;;;;5.52;81.32;100370.59;5051649;28;20046;-61
2023/10/23 01:13:47;;;;;;;5.97;1.95;;;;;;;5.55;80.73;100364.56;5051265;28;20044;-63
2023/10/23 01:16:18;;;;;;;3.72;1.63;;;;;;;5.54;80.64;100363.69;5042895;28;20052;-63
2023/10/23 01:18:48;;;;;;;3.05;1.60;;;;;;;5.57;79.75;100358.50;5052517;28;20044;-63
2023/10/23 01:21:19;;;;;;;4.65;1.85;;;;;;;5.78;80.54;100356.88;5052416;28;20060;-63
2023/10/23 01:23:51;;;;;;;4.82;1.80;;;;;;;6.00;79.52;100353.56;5051445;28;20509;-62
2023/10/23 01:26:23;;;;;;;3.05;1.70;;;;;;;6.19;77.23;100348.41;5042317;28;20066;-62
2023/10/23 01:28:53;;;;;;;5.63;1.45;;;;;;;6.29;74.79;100345.00;5051404;28;20054;-62
2023/10/23 01:31:24;;;;;;;5.63;1.48;;;;;;;6.42;73.41;100341.56;5072305;28;20045;-62
2023/10/23 01:33:55;;;;;;;6.20;1.70;;;;;;;6.60;72.99;100339.84;5073382;28;20094;-62
2023/10/23 01:36:25;;;;;;;6.28;1.88;;;;;;;6.81;71.67;100329.47;5061708;28;20070;-62
2023/10/23 01:38:56;;;;;;;2.05;1.40;;;;;;;6.82;69.08;100331.22;5051589;28;20064;-62
2023/10/23 01:41:28;;;;;;;2.60;1.42;;;;;;;6.83;67.79;100322.53;5031603;28;20041;-62
2023/10/23 01:43:58;;;;;;;2.55;1.10;;;;;;;6.86;67.44;100322.56;5031359;28;20522;-61
2023/10/23 01:46:28;;;;;;;5.68;1.80;;;;;;;6.90;67.51;100316.47;5021910;28;20135;-62
2023/10/23 01:48:59;;;;;;;5.15;1.70;;;;;;;6.93;66.15;100317.34;5052058;28;20041;-61
2023/10/23 01:51:29;;;;;;;3.38;1.33;;;;;;;7.09;67.12;100313.88;5061842;28;20063;-62
2023/10/23 01:54:00;;;;;;;5.85;1.60;;;;;;;7.21;64.78;100324.22;5052584;28;20459;-62
2023/10/23 01:56:32;;;;;;;10.68;2.00;;;;;;;7.31;65.03;100325.09;5041377;28;20051;-61
2023/10/23 01:59:02;;;;;;;6.82;1.65;;;;;;;7.50;61.42;100328.53;5052414;28;20135;-62
2023/10/23 02:01:37;;;;;;;2.17;1.20;;;;;;;7.55;61.95;100329.38;5051689;28;20068;-62
2023/10/23 02:04:08;;;;;;;5.05;1.15;;;;;;;7.48;59.60;100323.31;5051129;28;20037;-62
2023/10/23 02:06:38;;;;;;;3.70;1.23;;;;;;;7.43;61.29;100327.66;5040306;28;20064;-62
2023/10/23 02:09:09;;;;;;;3.83;1.20;;;;;;;7.35;60.45;100338.06;5051039;28;20041;-63
2023/10/23 02:11:41;;;;;;;2.50;1.13;;;;;;;7.07;55.50;100328.59;5040624;28;20443;-63
2023/10/23 02:14:12;;;;;;;6.60;1.83;;;;;;;6.69;52.67;100324.28;5051649;28;20062;-62
2023/10/23 02:16:42;;;;;;;2.22;1.10;;;;;;;6.60;53.35;100337.25;5040878;28;20060;-63
2023/10/23 02:19:13;;;;;;;3.80;1.30;;;;;;;6.60;54.59;100329.47;5057748;28;20047;-63
2023/10/23 02:21:49;;;;;;;1.75;1.23;;;;;;;6.63;54.07;100330.31;5051334;28;20068;-63
2023/10/23 02:24:19;;;;;;;1.70;1.10;;;;;;;6.69;52.73;100329.50;5040053;28;20045;-63
2023/10/23 02:26:54;;;;;;;2.83;0.98;;;;;;;6.65;51.77;100335.53;5050953;28;20152;-62
2023/10/23 02:29:25;;;;;;;3.35;1.17;;;;;;;6.64;51.72;100331.19;5072452;28;20350;-62
2023/10/23 02:31:55;;;;;;;5.90;1.38;;;;;;;6.54;50.70;100325.16;5072256;28;20070;-62
2023/10/23 02:34:25;;;;;;;1.40;0.90;;;;;;;6.40;47.83;100327.72;5071628;28;20107;-61
2023/10/23 02:36:56;;;;;;;5.30;1.15;;;;;;;6.21;48.83;100321.59;5061355;28;20052;-62
2023/10/23 02:39:26;;;;;;;1.88;1.00;;;;;;;6.10;48.35;100318.13;5043662;28;20056;-63
2023/10/23 02:41:58;;;;;;;4.10;1.00;;;;;;;5.98;47.99;100326.72;5054189;28;20070;-63
2023/10/23 02:44:30;;;;;;;4.00;1.05;;;;;;;6.03;49.90;100326.75;5044097;28;20052;-62
2023/10/23 02:47:00;;;;;;;3.25;1.17;;;;;;;6.00;48.49;100322.44;5054123;28;20044;-62
2023/10/23 02:49:30;;;;;;;2.35;1.23;;;;;;;5.96;48.59;100331.03;5044496;28;20522;-63
2023/10/23 02:52:01;;;;;;;2.88;1.00;;;;;;;6.00;47.06;100332.81;5055057;28;20063;-62
2023/10/23 02:54:31;;;;;;;1.17;1.05;;;;;;;5.96;47.18;100338.81;5045439;28;20435;-61
2023/10/23 02:57:03;;;;;;;3.25;1.30;;;;;;;5.97;47.12;100338.00;5063922;28;20447;-63
2023/10/23 02:59:34;;;;;;;1.70;0.93;;;;;;;5.98;45.25;100355.25;5045223;28;20048;-62
2023/10/23 03:02:04;;;;;;;3.63;1.10;;;;;;;6.04;45.04;100342.34;5054870;28;20054;-62
2023/10/23 03:04:35;;;;;;;1.63;1.00;;;;;;;5.99;45.80;100357.03;5044924;28;20113;-62
2023/10/23 03:07:06;;;;;;;1.95;1.00;;;;;;;5.97;46.90;100353.56;5075548;28;20044;-62
2023/10/23 03:09:36;;;;;;;2.15;1.10;;;;;;;5.94;46.98;100348.34;5054645;28;20139;-62
2023/10/23 03:12:09;;;;;;;2.20;1.00;;;;;;;5.87;47.96;100356.94;5035126;28;20045;-62
2023/10/23 03:14:39;;;;;;;1.55;0.98;;;;;;;5.88;48.39;100353.47;5032903;28;20330;-62
2023/10/23 03:17:10;;;;;;;2.53;1.08;;;;;;;5.85;47.57;100361.25;5054377;28;20043;-63
2023/10/23 03:19:40;;;;;;;2.45;0.95;;;;;;;5.90;47.88;100356.94;5053220;28;20079;-63
2023/10/23 03:22:10;;;;;;;5.15;0.95;;;;;;;6.01;48.34;100370.84;5054853;28;20040;-62
2023/10/23 03:24:41;;;;;;;3.40;1.15;;;;;;;6.09;48.22;100373.50;5053823;28;20147;-63
2023/10/23 03:27:13;;;;;;;2.83;0.98;;;;;;;6.15;48.23;100375.22;5075090;28;20105;-62
2023/10/23 03:29:44;;;;;;;2.83;1.00;;;;;;;6.02;47.86;100367.41;5074748;28;20062;-62
2023/10/23 03:32:15;;;;;;;2.22;1.02;;;;;;;6.07;49.15;100379.53;5063586;28;20052;-63
2023/10/23 03:34:46;;;;;;;2.97;1.40;;;;;;;5.94;48.58;100374.28;5053099;28;20434;-64
2023/10/23 03:37:17;;;;;;;5.05;1.20;;;;;;;5.96;48.69;100382.91;5042261;28;20048;-63
2023/10/23 03:39:49;;;;;;;1.67;1.00;;;;;;;5.96;49.06;100388.09;5052667;28;20548;-63
2023/10/23 03:42:21;;;;;;;2.47;0.90;;;;;;;6.02;49.41;100393.34;5063665;28;20082;-60
2023/10/23 03:45:02;;;;;;;;;;;;;;;;;;;;;
2023/10/23 03:47:34;;;;;;;2.63;1.13;;;;;;;6.20;49.86;100399.47;5035920;28;20091;-64
2023/10/23 03:50:06;;;;;;;6.75;1.20;;;;;;;6.26;48.43;100396.88;5054635;28;20051;-65
2023/10/23 03:52:36;;;;;;;3.67;0.90;;;;;;;6.16;48.95;100405.50;5037311;28;20474;-65
2023/10/23 03:55:07;;;;;;;3.47;1.33;;;;;;;5.98;48.20;100386.41;5048583;28;20037;-65
2023/10/23 03:57:39;;;;;;;3.40;1.50;;;;;;;5.91;49.18;100399.28;5046289;28;20384;-64
2023/10/23 04:00:11;;;;;;;4.03;1.50;;;;;;;6.00;48.98;100395.06;5043330;28;20075;-64
2023/10/23 04:02:41;;;;;;;1.27;1.08;;;;;;;5.79;48.51;100353.41;5029243;28;20362;-63
2023/10/23 04:05:11;;;;;;;2.35;1.10;;;;;;;5.99;47.61;100402.81;5047660;28;20045;-63
2023/10/23 04:07:42;;;;;;;2.10;1.17;;;;;;;5.93;47.86;100403.63;5023845;28;20040;-65
2023/10/23 04:10:13;;;;;;;3.70;1.00;;;;;;;6.00;47.00;100409.75;5041203;28;20044;-65
2023/10/23 04:12:45;;;;;;;3.17;1.08;;;;;;;6.07;48.70;100410.66;5048701;28;20040;-65
2023/10/23 04:15:16;;;;;;;4.78;1.00;;;;;;;6.11;49.22;100412.38;5046173;28;20053;-64
2023/10/23 04:17:47;;;;;;;2.35;0.85;;;;;;;6.07;48.20;100395.09;5034630;28;20044;-64
2023/10/23 04:20:17;;;;;;;2.25;0.90;;;;;;;6.26;49.08;100412.44;5024042;28;20071;-64
2023/10/23 04:22:48;;;;;;;5.47;0.90;;;;;;;6.41;49.75;100417.69;5038940;28;20131;-64
2023/10/23 04:25:18;;;;;;;4.10;1.20;;;;;;;6.51;50.22;100415.97;5038909;28;20044;-65
2023/10/23 04:27:50;;;;;;;2.08;0.90;;;;;;;6.69;49.70;100418.63;5054055;28;20075;-65
2023/10/23 04:30:21;;;;;;;1.23;0.80;;;;;;;6.84;47.75;100424.69;5028233;28;20075;-65
2023/10/23 04:32:51;;;;;;;3.95;0.80;;;;;;;6.89;46.74;100421.25;5039255;28;20048;-64
2023/10/23 04:35:21;;;;;;;4.22;0.98;;;;;;;7.21;48.14;100423.00;5047205;28;20095;-64
2023/10/23 04:37:52;;;;;;;4.30;0.80;;;;;;;7.40;46.13;100428.19;5042494;28;20041;-65
2023/10/23 04:40:22;;;;;;;3.63;0.80;;;;;;;7.49;45.75;100418.66;5039039;28;20044;-65
2023/10/23 04:42:54;;;;;;;1.73;0.80;;;;;;;7.47;45.09;100414.34;5043116;28;20042;-64
2023/10/23 04:45:24;;;;;;;2.28;0.80;;;;;;;7.41;45.18;100419.53;5038424;28;20045;-64
2023/10/23 04:47:55;;;;;;;0.98;0.80;;;;;;;7.40;44.56;100431.66;5032839;28;20440;-65
2023/10/23 04:50:25;;;;;;;10.38;5.18;;;;;;;7.26;45.84;100438.59;5040896;28;20378;-64
2023/10/23 04:52:56;;;;;;;3.40;1.35;;;;;;;7.18;46.05;100443.78;5040391;28;20055;-65
2023/10/23 04:55:26;;;;;;;1.13;0.80;;;;;;;7.16;45.97;100444.66;5033394;28;20044;-65
2023/10/23 04:58:00;;;;;;;1.73;0.70;;;;;;;7.20;46.58;100442.06;5033164;28;20125;-65
2023/10/23 05:00:31;;;;;;;2.78;0.70;;;;;;;7.05;45.39;100452.44;5033317;28;20052;-65
2023/10/23 05:03:03;;;;;;;2.55;0.77;;;;;;;7.04;46.03;100450.69;5057393;28;20443;-65
2023/10/23 05:05:35;;;;;;;2.47;0.75;;;;;;;6.99;46.21;100447.22;5022330;28;20076;-65
2023/10/23 05:08:06;;;;;;;1.80;1.00;;;;;;;7.05;45.57;100453.31;5052697;28;20048;-65
2023/10/23 05:10:36;;;;;;;1.52;0.60;;;;;;;7.00;43.16;100459.38;5028338;28;20115;-66
2023/10/23 05:13:08;;;;;;;2.03;0.70;;;;;;;6.88;43.55;100466.28;5051867;28;20046;-64
2023/10/23 05:15:39;;;;;;;3.38;0.80;;;;;;;6.88;42.87;100468.88;5038408;28;20534;-66
2023/10/23 05:18:09;;;;;;;0.80;0.70;;;;;;;6.84;43.61;100464.56;5034058;28;20352;-65
2023/10/23 05:20:39;;;;;;;2.78;0.85;;;;;;;6.91;43.87;100476.69;5038058;28;20044;-65
2023/10/23 05:23:13;;;;;;;2.20;0.90;;;;;;;6.96;44.75;100473.22;5049646;28;20079;-65
2023/10/23 05:25:43;;;;;;;2.35;0.80;;;;;;;7.02;43.50;100478.44;5039167;28;20036;-64
2023/10/23 05:28:15;;;;;;;2.05;0.90;;;;;;;6.94;44.61;100474.94;5037011;28;20059;-66
2023/10/23 05:30:46;;;;;;;1.73;0.90;;;;;;;7.05;46.63;100473.25;5044628;28;20040;-64
2023/10/23 05:33:16;;;;;;;4.95;1.00;;;;;;;7.07;42.71;100489.69;5026682;28;20415;-65
2023/10/23 05:35:47;;;;;;;3.15;0.85;;;;;;;6.91;42.69;100468.91;5034577;28;20455;-63
2023/10/23 05:38:17;;;;;;;2.15;1.20;;;;;;;6.70;43.05;100463.66;5043418;28;20040;-65
2023/10/23 05:40:47;;;;;;;1.08;0.88;;;;;;;6.66;43.60;100488.75;5041447;28;20078;-63
2023/10/23 05:43:19;;;;;;;1.10;0.70;;;;;;;6.62;43.14;100486.13;5020333;28;20145;-62
2023/10/23 05:45:50;;;;;;;0.95;0.60;;;;;;;6.59;44.29;100487.00;5031157;28;20056;-63
2023/10/23 05:48:20;;;;;;;1.92;0.90;;;;;;;6.63;45.10;100490.44;5022874;28;20511;-65
2023/10/23 05:50:59;;;;;;;2.45;0.70;;;;;;;6.60;44.82;100495.63;5054780;28;20356;-65
2023/10/23 05:53:30;;;;;;;1.02;0.75;;;;;;;6.46;43.30;100496.47;5042651;28;20379;-65
2023/10/23 05:56:04;;;;;;;2.55;0.90;;;;;;;6.40;44.72;100506.81;5042129;28;20363;-65
2023/10/23 05:58:36;;;;;;;0.77;0.63;;;;;;;6.39;45.26;100502.50;5019742;28;20175;-64
2023/10/23 06:01:07;;;;;;;3.25;0.90;;;;;;;6.42;46.00;100517.22;5038619;28;20110;-65
2023/10/23 06:03:38;;;;;;;2.13;0.77;;;;;;;6.41;45.61;100513.72;5041533;28;20041;-67
2023/10/23 06:06:09;;;;;;;2.63;0.80;;;;;;;6.37;46.76;100522.38;5037266;28;20074;-65
2023/10/23 06:08:39;;;;;;;4.38;0.80;;;;;;;6.32;45.26;100521.47;5025496;28;20041;-65
2023/10/23 06:11:10;;;;;;;1.65;0.68;;;;;;;6.40;47.39;100519.78;5052191;28;20036;-65
2023/10/23 06:13:42;;;;;;;6.00;0.75;;;;;;;6.38;46.67;100510.25;5036602;28;20044;-65
2023/10/23 06:16:12;;;;;;;3.88;0.88;;;;;;;6.46;47.06;100522.41;5032964;28;20036;-64
2023/10/23 06:18:43;;;;;;;5.63;0.90;;;;;;;6.26;46.28;100495.47;5034421;28;20452;-64
2023/10/23 06:21:13;;;;;;;4.55;1.08;;;;;;;6.39;45.51;100531.03;5027787;28;20051;-65
2023/10/23 06:23:43;;;;;;;1.45;0.85;;;;;;;6.32;46.44;100534.47;5047037;28;20056;-65
2023/10/23 06:26:14;;;;;;;8.43;1.23;;;;;;;6.34;47.93;100550.91;5047417;28;20115;-65
2023/10/23 06:28:46;;;;;;;4.35;0.90;;;;;;;6.34;48.10;100550.91;5053875;28;20075;-65
2023/10/23 06:31:16;;;;;;;2.22;0.90;;;;;;;6.25;44.95;100556.03;5045874;28;20064;-63
2023/10/23 06:33:47;;;;;;;1.63;1.00;;;;;;;6.16;46.14;100555.97;5033724;28;20044;-65
2023/10/23 06:36:17;;;;;;;3.38;0.90;;;;;;;6.00;44.92;100561.06;5023463;28;20780;-65
2023/10/23 06:38:47;;;;;;;1.00;0.80;;;;;;;5.68;44.24;100537.44;5034314;28;20063;-65
2023/10/23 06:41:18;;;;;;;6.75;0.90;;;;;;;5.84;46.25;100574.72;5024472;28;20053;-63
2023/10/23 06:43:50;;;;;;;2.08;0.77;;;;;;;5.81;47.87;100580.75;5033552;28;20154;-64
2023/10/23 06:46:20;;;;;;;1.35;0.70;;;;;;;5.80;46.92;100583.34;5032952;28;20097;-64
2023/10/23 06:48:51;;;;;;;3.60;1.90;;;;;;;5.74;46.94;100584.19;5033465;28;20133;-65
2023/10/23 06:51:21;;;;;;;2.70;1.20;;;;;;;5.61;47.67;100583.19;5023597;28;20052;-64
2023/10/23 06:53:52;;;;;;;1.73;0.90;;;;;;;5.55;48.51;100593.50;5033819;28;20084;-64
2023/10/23 06:56:22;;;;;;;1.77;0.90;;;;;;;5.48;48.72;100594.31;5022607;28;20062;-65
2023/10/23 06:58:54;;;;;;;3.00;0.95;;;;;;;5.44;49.52;100592.53;5033094;28;20529;-64
2023/10/23 07:01:24;;;;;;;2.40;0.75;;;;;;;5.39;50.38;100597.69;5023543;28;20061;-64
2023/10/23 07:04:06;;;;;;;1.13;0.82;;;;;;;5.35;51.19;100605.41;5033557;28;20427;-63
2023/10/23 07:06:37;;;;;;;2.30;1.00;;;;;;;5.25;51.63;100599.25;5022662;28;20064;-64
2023/10/23 07:09:07;;;;;;;3.58;1.20;;;;;;;5.21;51.82;100614.75;5033511;28;20044;-65
2023/10/23 07:11:38;;;;;;;4.18;1.20;;;;;;;5.17;53.94;100612.13;5022657;28;20064;-65
2023/10/23 07:14:10;;;;;;;7.15;1.00;;;;;;;5.13;54.73;100619.84;5033914;28;20041;-65
2023/10/23 07:16:40;;;;;;;8.48;2.97;;;;;;;5.05;54.01;100627.53;5024133;28;20070;-65
2023/10/23 07:19:11;;;;;;;6.25;3.90;;;;;;;4.96;54.89;100630.00;5033931;28;20060;-63
2023/10/23 07:21:41;;;;;;;6.13;3.72;;;;;;;4.88;53.73;100631.63;5021908;28;20390;-65
2023/10/23 07:24:12;;;;;;;7.35;3.30;;;;;;;4.76;53.70;100630.59;5031692;28;20037;-64
2023/10/23 07:26:42;;;;;;;5.55;2.60;;;;;;;4.65;55.10;100636.50;5022549;28;20113;-64
2023/10/23 07:29:14;;;;;;;7.70;2.10;;;;;;;4.58;57.32;100640.72;5030438;28;20127;-65
2023/10/23 07:31:45;;;;;;;2.47;1.85;;;;;;;4.52;59.07;100651.00;5032614;28;20053;-65
2023/10/23 07:34:15;;;;;;;5.07;2.20;;;;;;;4.43;60.29;100646.56;5021460;28;20075;-64
2023/10/23 07:36:46;;;;;;;8.80;2.65;;;;;;;4.30;60.85;100653.25;5031498;28;20811;-63
2023/10/23 07:39:18;;;;;;;12.15;2.78;;;;;;;4.12;61.43;100658.16;5021876;28;20110;-62
2023/10/23 07:41:48;;;;;;;7.63;2.70;;;;;;;3.99;61.54;100658.78;5032396;28;20175;-64
2023/10/23 07:44:20;;;;;;;8.27;2.72;;;;;;;3.89;61.60;100653.47;5023464;28;20053;-65
2023/10/23 07:46:50;;;;;;;11.90;2.80;;;;;;;3.86;62.97;100658.56;5039787;28;20451;-64
2023/10/23 07:49:21;;;;;;;11.15;3.05;;;;;;;3.68;63.00;100666.00;5023277;28;20147;-63
2023/10/23 07:51:52;;;;;;;27.65;11.52;;;;;;;3.44;63.13;100669.00;5032532;28;20048;-64
2023/10/23 07:54:23;;;;;;;20.73;9.63;;;;;;;3.06;64.61;100670.84;5022914;28;20049;-65
2023/10/23 07:56:56;;;;;;;13.55;5.50;;;;;;;2.74;66.22;100669.28;5033738;28;20044;-63
2023/10/23 07:59:28;;;;;;;12.23;3.03;;;;;;;2.61;67.34;100681.91;5022372;28;20057;-65
2023/10/23 08:01:59;;;;;;;8.00;1.92;;;;;;;2.44;68.30;100684.97;5047455;28;20045;-65
2023/10/23 08:04:29;;;;;;;5.75;1.90;;;;;;;2.36;69.19;100691.66;5043840;28;20036;-69
2023/10/23 08:07:01;;;;;;;3.33;2.88;;;;;;;2.13;69.56;100691.97;5053737;28;20064;-65
2023/10/23 08:09:31;;;;;;;11.60;7.97;;;;;;;1.84;70.07;100690.34;5037686;28;20036;-63
2023/10/23 08:12:02;;;;;;;7.63;3.83;;;;;;;1.63;70.85;100696.69;5033585;28;20041;-65
2023/10/23 08:14:35;;;;;;;3.83;2.63;;;;;;;1.60;71.75;100706.94;5024259;28;20062;-64
2023/10/23 08:17:06;;;;;;;5.53;2.90;;;;;;;1.49;72.49;100710.91;5031832;28;20049;-64
2023/10/23 08:19:37;;;;;;;4.35;2.00;;;;;;;1.38;72.89;100714.91;5023100;28;20052;-62
2023/10/23 08:22:08;;;;;;;1.63;1.30;;;;;;;1.21;74.00;100707.56;5031573;28;20050;-63
2023/10/23 08:24:39;;;;;;;1.85;1.50;;;;;;;1.09;74.10;100707.19;5022052;28;20063;-64
2023/10/23 08:27:10;;;;;;;1.65;1.40;;;;;;;1.00;74.85;100714.63;5031812;28;20056;-63
2023/10/23 08:29:43;;;;;;;2.67;1.70;;;;;;;0.94;75.32;100717.91;5006012;28;20147;-63
2023/10/23 08:32:15;;;;;;;5.45;2.10;;;;;;;0.90;75.78;100720.34;5025687;28;20127;-64
2023/10/23 08:34:46;;;;;;;4.75;2.10;;;;;;;0.80;76.28;100729.47;5031195;28;20051;-65
2023/10/23 08:37:19;;;;;;;4.32;2.90;;;;;;;0.80;76.56;100730.38;5022174;28;20106;-64
2023/10/23 08:39:52;;;;;;;7.43;4.15;;;;;;;0.76;77.25;100733.66;5032610;28;20063;-66
2023/10/23 08:42:23;;;;;;;10.55;5.75;;;;;;;0.84;77.08;100747.63;5020708;28;20144;-64
2023/10/23 08:44:57;;;;;;;3.45;1.50;;;;;;;0.76;77.01;100745.66;5031884;28;20135;-64
2023/10/23 08:47:28;;;;;;;5.75;2.92;;;;;;;0.58;77.04;100743.38;5021905;28;20148;-63
2023/10/23 08:50:02;;;;;;;9.13;4.03;;;;;;;0.09;78.05;100690.38;5030747;28;20063;-64
2023/10/23 08:52:40;;;;;;;10.13;3.72;;;;;;;0.39;78.42;100747.91;5020600;28;20074;-63
2023/10/23 08:55:14;;;;;;;15.27;4.63;;;;;;;0.29;79.30;100751.03;5032744;28;20049;-64
2023/10/23 08:57:53;;;;;;;22.38;7.85;;;;;;;0.28;79.47;100762.13;5022101;28;20049;-62
2023/10/23 09:00:27;;;;;;;19.33;8.75;;;;;;;0.28;79.74;100764.72;5020056;28;20044;-63
2023/10/23 09:02:59;;;;;;;15.50;7.00;;;;;;;0.29;79.43;100776.72;5029789;28;20114;-63
2023/10/23 09:05:30;;;;;;;11.68;4.65;;;;;;;0.37;80.03;100780.41;5030873;28;20044;-64
2023/10/23 09:08:02;;;;;;;6.45;3.72;;;;;;;0.28;79.52;100769.84;5044140;28;20098;-64
2023/10/23 09:10:34;;;;;;;4.15;2.65;;;;;;;0.23;79.97;100781.69;5024181;28;20117;-64
2023/10/23 09:13:04;;;;;;;3.30;2.28;;;;;;;0.34;80.29;100794.88;5036843;28;20049;-64
2023/10/23 09:15:38;;;;;;;7.82;3.40;;;;;;;0.27;80.53;100793.78;5023964;28;20064;-64
2023/10/23 09:18:14;;;;;;;17.27;4.68;;;;;;;0.30;80.57;100790.44;5049167;28;20044;-63
2023/10/23 09:20:45;;;;;;;5.95;2.53;;;;;;;0.31;80.44;100795.66;5023917;28;20049;-64
2023/10/23 09:23:17;;;;;;;4.28;2.22;;;;;;;0.34;80.36;100800.03;5057340;28;20052;-63
2023/10/23 09:25:50;;;;;;;6.95;2.80;;;;;;;0.38;80.92;100802.75;5034904;28;20045;-63
2023/10/23 09:28:24;;;;;;;10.90;4.28;;;;;;;0.40;81.54;100806.25;5027509;28;20462;-64
2023/10/23 09:31:02;;;;;;;11.95;6.13;;;;;;;0.31;81.91;100811.06;5044259;28;20127;-64
2023/10/23 09:33:35;;;;;;;6.85;3.30;;;;;;;0.23;82.13;100811.66;5028769;28;20053;-64
2023/10/23 09:36:08;;;;;;;6.30;2.28;;;;;;;0.14;82.51;100812.19;5046310;28;20076;-64
2023/10/23 09:38:41;;;;;;;16.98;6.97;;;;;;;-0.02;82.92;100793.69;5028520;28;20087;-63
2023/10/23 09:41:12;;;;;;;15.70;4.80;;;;;;;-0.34;83.06;100761.72;5043110;28;20037;-63
2023/10/23 09:43:50;;;;;;;12.23;5.13;;;;;;;-0.08;83.02;100815.69;5033356;28;20123;-63
2023/10/23 09:46:27;;;;;;;19.23;6.20;;;;;;;-0.83;83.37;100689.78;5020922;28;20137;-64
2023/10/23 09:49:03;;;;;;;15.07;7.80;;;;;;;-0.12;83.86;100829.28;5036980;28;20041;-64
2023/10/23 09:51:38;;;;;;;15.18;7.50;;;;;;;-0.16;83.93;100832.53;5028463;28;20058;-63
2023/10/23 09:54:15;;;;;;;7.30;3.75;;;;;;;-0.22;83.59;100822.94;5047614;28;20037;-63
2023/10/23 09:56:50;;;;;;;11.68;4.07;;;;;;;-0.25;83.65;100822.78;5028675;28;20514;-64
2023/10/23 09:59:42;;;;;;;8.93;4.20;;;;;;;-0.25;83.64;100827.94;5014888;28;20040;-63
2023/10/23 10:02:21;;;;;;;3.22;2.20;;;;;;;-0.34;83.21;100815.63;5033270;28;20451;-64
2023/10/23 10:05:04;;;;;;;3.67;2.20;;;;;;;-0.45;83.28;100804.09;5069956;28;20106;-64
2023/10/23 10:07:43;;;;;;;7.63;3.25;;;;;;;-0.52;83.41;100805.56;5026906;28;20044;-63
2023/10/23 10:10:14;;;;;;;8.38;2.90;;;;;;;-0.57;83.90;100819.06;5035216;28;20124;-63
2023/10/23 10:12:48;;;;;;;7.05;3.00;;;;;;;-0.48;85.11;100822.81;5057903;28;20044;-62
2023/10/23 10:15:21;;;;;;;5.45;2.95;;;;;;;-0.47;85.42;100822.03;5032733;28;20043;-64
2023/10/23 10:17:54;;;;;;;4.90;2.20;;;;;;;-0.46;85.56;100813.50;5048760;28;20037;-64
2023/10/23 10:20:27;;;;;;;5.95;1.80;;;;;;;-0.48;84.79;100809.97;5025999;28;20049;-64
2023/10/23 10:23:08;;;;;;;3.20;2.05;;;;;;;-0.49;85.31;100818.53;5049795;28;20143;-64
2023/10/23 10:25:41;;;;;;;2.55;1.70;;;;;;;-0.49;85.44;100828.78;5027895;28;20041;-64
2023/10/23 10:28:17;;;;;;;4.78;2.70;;;;;;;-0.48;85.83;100830.53;5034976;28;20041;-63
2023/10/23 10:30:50;;;;;;;4.20;2.55;;;;;;;-0.52;85.66;100827.81;5025468;28;20459;-63
2023/10/23 10:33:25;;;;;;;18.08;9.02;;;;;;;-0.55;85.39;100833.72;5047385;28;20044;-63
2023/10/23 10:36:19;;;;;;;6.72;3.42;;;;;;;-0.55;85.68;100823.44;5033894;28;20123;-64
2023/10/23 10:39:12;;;;;;;13.98;6.18;;;;;;;-0.53;85.69;100824.34;5045139;28;20350;-63
2023/10/23 10:41:45;;;;;;;21.15;8.07;;;;;;;-0.48;86.02;100825.38;5026211;28;20056;-62
2023/10/23 10:44:21;;;;;;;35.47;15.23;;;;;;;-0.52;86.39;100818.41;5039434;28;20045;-62
2023/10/23 10:46:52;;;;;;;25.05;11.50;;;;;;;-0.49;86.67;100828.78;5040894;28;20036;-62
2023/10/23 10:49:33;;;;;;;15.65;6.65;;;;;;;-0.53;86.70;100824.34;5038402;28;20102;-62
2023/10/23 10:52:30;;;;;;;5.63;2.40;;;;;;;-0.66;85.93;100825.56;5037916;28;20451;-61
2023/10/23 10:55:08;;;;;;;22.42;7.20;;;;;;;-0.89;86.69;100801.63;5054741;28;20072;-62
2023/10/23 10:57:42;;;;;;;61.90;23.15;;;;;;;-0.79;87.35;100822.50;5030067;28;20052;-63
2023/10/23 11:00:18;;;;;;;63.72;20.45;;;;;;;-0.73;87.90;100823.59;5037129;28;20049;-62
2023/10/23 11:02:51;;;;;;;55.08;17.70;;;;;;;-0.68;88.65;100821.19;5044614;28;20037;-63
2023/10/23 11:05:31;;;;;;;39.20;13.60;;;;;;;-0.66;89.00;100819.56;5057901;28;20040;-63
2023/10/23 11:08:04;;;;;;;16.27;5.32;;;;;;;-0.57;88.85;100845.59;5044697;28;20068;-63
2023/10/23 11:10:36;;;;;;;11.32;4.50;;;;;;;-0.61;88.11;100843.72;5038924;28;20079;-62
2023/10/23 11:13:08;;;;;;;14.38;4.35;;;;;;;-0.68;88.31;100857.13;5038895;28;20459;-63
2023/10/23 11:15:39;;;;;;;12.50;3.35;;;;;;;-0.72;88.54;100850.16;5024395;28;20052;-63
2023/10/23 11:18:11;;;;;;;12.95;5.15;;;;;;;-0.75;88.30;100855.16;5039801;28;20106;-63
2023/10/23 11:20:45;;;;;;;10.88;4.00;;;;;;;-0.84;88.34;100844.53;5047372;28;20139;-62
2023/10/23 11:23:17;;;;;;;7.45;3.60;;;;;;;-0.73;88.75;100863.78;5046051;28;20041;-62
2023/10/23 11:25:50;;;;;;;17.17;3.58;;;;;;;-0.75;88.04;100860.28;5038645;28;20051;-63
2023/10/23 11:28:22;;;;;;;10.35;4.13;;;;;;;-1.26;88.25;100780.47;5040678;28;20032;-63
2023/10/23 11:31:03;;;;;;;15.15;3.50;;;;;;;-0.82;88.20;100863.41;5046654;28;20052;-62
2023/10/23 11:33:34;;;;;;;11.57;3.75;;;;;;;-0.71;88.11;100872.41;5049056;28;21058;-62
2023/10/23 11:36:12;;;;;;;11.60;4.05;;;;;;;-0.68;88.00;100877.66;5034407;28;20377;-61
2023/10/23 11:38:46;;;;;;;15.18;2.97;;;;;;;-0.78;87.69;100886.69;5034111;28;20117;-62
2023/10/23 11:41:17;;;;;;;6.68;3.03;;;;;;;-0.85;87.28;100873.56;5037887;28;20132;-61
2023/10/23 11:43:48;;;;;;;12.20;3.72;;;;;;;-0.88;87.62;100877.75;5026514;28;20060;-61
2023/10/23 11:46:20;;;;;;;13.63;3.92;;;;;;;-0.95;87.71;100857.84;5035014;28;20045;-62
2023/10/23 11:49:00;;;;;;;11.50;4.30;;;;;;;-0.90;87.66;100876.84;5044032;28;20120;-61
2023/10/23 11:51:35;;;;;;;11.45;4.18;;;;;;;-0.99;87.47;100858.50;5026890;28;20056;-61
2023/10/23 11:54:07;;;;;;;20.92;6.63;;;;;;;-1.01;87.63;100867.81;5039830;28;20041;-63
2023/10/23 11:56:38;;;;;;;6.63;3.58;;;;;;;-1.14;87.56;100865.59;5036458;28;20402;-62
2023/10/23 11:59:10;;;;;;;8.07;3.80;;;;;;;-1.26;87.39;100859.97;5049024;28;20045;-62